sensor_id;sensor_type;location;lat;lon;timestamp;P1;durP1;ratioP1;P2;durP2;ratioP2
29172;SDS011;16223;47.966;-1.616;2023-02-01T00:00:34;12.675;;;7.012499999999999;;
29172;SDS011;16223;47.966;-1.616;2023-02-01T00:01:34;14.8875;;;7.4875;;
29172;SDS011;16223;47.966;-1.616;2023-02-01T00:02:34;16.950000000000003;;;8.087499999999999;;
29172;SDS011;16223;47.966;-1.616;2023-02-01T00:03:33;5.112500000000001;;;4.887499999999999;;
29172;SDS011;16223;47.966;-1.616;2023-02-01T00:04:34;9.262500000000001;;;7.4125000000000005;;
29172;SDS011;16223;47.966;-1.616;2023-02-01T00:05:33;10.712499999999999;;;6.4125;;
29172;SDS011;16223;47.966;-1.616;2023-02-01T00:06:33;11.4875;;;8.45;;
29172;SDS011;16223;47.966;-1.616;2023-02-01T00:07:33;5.825;;;5.262499999999999;;
29172;SDS011;16223;47.966;-1.616;2023-02-01T00:08:33;24.7125;;;6.074999999999999;;
29172;SDS011;16223;47.966;-1.616;2023-02-01T00:09:33;20.012500000000003;;;4.975;;
29172;SDS011;16223;47.966;-1.616;2023-02-01T00:10:34;15.6;;;11.424999999999999;;
29172;SDS011;16223;47.966;-1.616;2023-02-01T00:11:33;6.475;;;6.15;;
29172;SDS011;16223;47.966;-1.616;2023-02-01T00:12:34;17.8875;;;16.3;;
29172;SDS011;16223;47.966;-1.616;2023-02-01T00:13:34;19.5375;;;7.5625;;
29172;SDS011;16223;47.966;-1.616;2023-02-01T00:14:33;35.087500000000006;;;9.625;;
29172;SDS011;16223;47.966;-1.616;2023-02-01T00:15:33;14.6375;;;6.8625;;
29172;SDS011;16223;47.966;-1.616;2023-02-01T00:16:34;10.2875;;;5.0875;;
29172;SDS011;16223;47.966;-1.616;2023-02-01T00:17:33;6.324999999999999;;;5.925000000000001;;
29172;SDS011;16223;47.966;-1.616;2023-02-01T00:18:34;10.3;;;8.6;;
29172;SDS011;16223;47.966;-1.616;2023-02-01T00:19:34;8.7;;;5.1125;;
29172;SDS011;16223;47.966;-1.616;2023-02-01T00:20:34;8.6125;;;6.1;;
29172;SDS011;16223;47.966;-1.616;2023-02-01T00:21:34;16.45;;;6.0875;;
29172;SDS011;16223;47.966;-1.616;2023-02-01T00:22:34;42.55;;;6.025;;
29172;SDS011;16223;47.966;-1.616;2023-02-01T00:23:34;4.85;;;4.7;;
29172;SDS011;16223;47.966;-1.616;2023-02-01T00:24:34;7.762500000000001;;;7.1;;
29172;SDS011;16223;47.966;-1.616;2023-02-01T00:25:34;5.8125;;;5.4125;;
29172;SDS011;16223;47.966;-1.616;2023-02-01T00:26:34;27.049999999999997;;;7.8625;;
29172;SDS011;16223;47.966;-1.616;2023-02-01T00:27:34;7.125;;;5.612500000000001;;
29172;SDS011;16223;47.966;-1.616;2023-02-01T00:28:34;9.8;;;6.325;;
29172;SDS011;16223;47.966;-1.616;2023-02-01T00:29:37;6.5125;;;6.0125;;
29172;SDS011;16223;47.966;-1.616;2023-02-01T00:30:34;5.4;;;5.0;;
29172;SDS011;16223;47.966;-1.616;2023-02-01T00:31:34;7.2875;;;6.074999999999999;;
29172;SDS011;16223;47.966;-1.616;2023-02-01T00:32:34;9.450000000000001;;;8.5;;
29172;SDS011;16223;47.966;-1.616;2023-02-01T00:33:34;15.312500000000002;;;7.550000000000001;;
29172;SDS011;16223;47.966;-1.616;2023-02-01T00:34:34;10.8375;;;9.1;;
29172;SDS011;16223;47.966;-1.616;2023-02-01T00:35:34;11.5875;;;7.9;;
29172;SDS011;16223;47.966;-1.616;2023-02-01T00:36:34;39.1;;;7.3;;
29172;SDS011;16223;47.966;-1.616;2023-02-01T00:37:34;11.587500000000002;;;6.2875000000000005;;
29172;SDS011;16223;47.966;-1.616;2023-02-01T00:38:36;14.4875;;;8.7125;;
29172;SDS011;16223;47.966;-1.616;2023-02-01T00:39:34;16.1625;;;10.75;;
29172;SDS011;16223;47.966;-1.616;2023-02-01T00:40:34;10.0375;;;7.887499999999999;;
29172;SDS011;16223;47.966;-1.616;2023-02-01T00:41:34;16.475;;;14.3625;;
29172;SDS011;16223;47.966;-1.616;2023-02-01T00:42:34;14.5;;;7.6375;;
29172;SDS011;16223;47.966;-1.616;2023-02-01T00:43:34;12.1125;;;10.3;;
29172;SDS011;16223;47.966;-1.616;2023-02-01T00:44:34;9.3875;;;5.2375;;
29172;SDS011;16223;47.966;-1.616;2023-02-01T00:45:34;21.887500000000003;;;9.375;;
29172;SDS011;16223;47.966;-1.616;2023-02-01T00:46:34;14.225000000000001;;;8.3125;;
29172;SDS011;16223;47.966;-1.616;2023-02-01T00:47:34;7.4750000000000005;;;6.65;;
29172;SDS011;16223;47.966;-1.616;2023-02-01T00:48:34;8.6375;;;8.1875;;
29172;SDS011;16223;47.966;-1.616;2023-02-01T00:49:33;25.287499999999998;;;7.725;;
29172;SDS011;16223;47.966;-1.616;2023-02-01T00:50:34;27.7125;;;11.7;;
29172;SDS011;16223;47.966;-1.616;2023-02-01T00:51:33;7.762499999999999;;;7.2625;;
29172;SDS011;16223;47.966;-1.616;2023-02-01T00:52:34;17.4125;;;8.7625;;
29172;SDS011;16223;47.966;-1.616;2023-02-01T00:53:34;16.6625;;;9.3125;;
29172;SDS011;16223;47.966;-1.616;2023-02-01T00:54:33;10.7875;;;10.0375;;
29172;SDS011;16223;47.966;-1.616;2023-02-01T00:55:34;22.475;;;10.45;;
29172;SDS011;16223;47.966;-1.616;2023-02-01T00:56:34;7.65;;;7.0875;;
29172;SDS011;16223;47.966;-1.616;2023-02-01T00:57:34;10.075000000000001;;;6.975;;
29172;SDS011;16223;47.966;-1.616;2023-02-01T00:58:34;22.450000000000003;;;5.925000000000001;;
29172;SDS011;16223;47.966;-1.616;2023-02-01T00:59:34;22.974999999999998;;;8.899999999999999;;
29172;SDS011;16223;47.966;-1.616;2023-02-01T01:00:34;11.7375;;;5.5625;;
29172;SDS011;16223;47.966;-1.616;2023-02-01T01:01:34;8.8375;;;8.149999999999999;;
29172;SDS011;16223;47.966;-1.616;2023-02-01T01:02:34;27.599999999999998;;;10.0375;;
29172;SDS011;16223;47.966;-1.616;2023-02-01T01:03:34;17.5375;;;10.2375;;
29172;SDS011;16223;47.966;-1.616;2023-02-01T01:04:33;11.425;;;6.775;;
29172;SDS011;16223;47.966;-1.616;2023-02-01T01:05:33;7.0875;;;6.450000000000001;;
29172;SDS011;16223;47.966;-1.616;2023-02-01T01:06:34;5.6875;;;5.25;;
29172;SDS011;16223;47.966;-1.616;2023-02-01T01:07:34;4.55;;;4.45;;
29172;SDS011;16223;47.966;-1.616;2023-02-01T01:08:34;40.47500000000001;;;5.525;;
29172;SDS011;16223;47.966;-1.616;2023-02-01T01:09:34;6.325;;;5.9875;;
29172;SDS011;16223;47.966;-1.616;2023-02-01T01:10:34;9.7;;;4.7375;;
29172;SDS011;16223;47.966;-1.616;2023-02-01T01:11:34;9.1125;;;4.2;;
29172;SDS011;16223;47.966;-1.616;2023-02-01T01:12:33;25.65;;;6.4625;;
29172;SDS011;16223;47.966;-1.616;2023-02-01T01:13:33;9.0125;;;5.3125;;
29172;SDS011;16223;47.966;-1.616;2023-02-01T01:14:33;65.4625;;;6.125;;
29172;SDS011;16223;47.966;-1.616;2023-02-01T01:15:35;7.7875000000000005;;;7.237500000000001;;
29172;SDS011;16223;47.966;-1.616;2023-02-01T01:16:37;8.2375;;;6.574999999999999;;
29172;SDS011;16223;47.966;-1.616;2023-02-01T01:17:34;8.787500000000001;;;8.0125;;
29172;SDS011;16223;47.966;-1.616;2023-02-01T01:18:34;7.7125;;;7.025;;
29172;SDS011;16223;47.966;-1.616;2023-02-01T01:19:34;23.65;;;10.6875;;
29172;SDS011;16223;47.966;-1.616;2023-02-01T01:20:34;8.875;;;6.237500000000001;;
29172;SDS011;16223;47.966;-1.616;2023-02-01T01:21:34;7.5625;;;5.3125;;
29172;SDS011;16223;47.966;-1.616;2023-02-01T01:22:34;17.25;;;9.962499999999999;;
29172;SDS011;16223;47.966;-1.616;2023-02-01T01:23:34;9.162500000000001;;;8.600000000000001;;
29172;SDS011;16223;47.966;-1.616;2023-02-01T01:24:34;4.5625;;;4.4125;;
29172;SDS011;16223;47.966;-1.616;2023-02-01T01:25:36;14.175;;;13.3125;;
29172;SDS011;16223;47.966;-1.616;2023-02-01T01:26:34;11.7625;;;10.3375;;
29172;SDS011;16223;47.966;-1.616;2023-02-01T01:27:33;9.849999999999998;;;8.799999999999999;;
29172;SDS011;16223;47.966;-1.616;2023-02-01T01:28:34;45.45;;;10.2375;;
29172;SDS011;16223;47.966;-1.616;2023-02-01T01:29:34;26.95;;;9.3;;
29172;SDS011;16223;47.966;-1.616;2023-02-01T01:30:34;8.7375;;;8.15;;
29172;SDS011;16223;47.966;-1.616;2023-02-01T01:31:33;22.0375;;;7.85;;
29172;SDS011;16223;47.966;-1.616;2023-02-01T01:32:34;19.462500000000002;;;9.325;;
29172;SDS011;16223;47.966;-1.616;2023-02-01T01:33:34;13.95;;;7.237499999999999;;
29172;SDS011;16223;47.966;-1.616;2023-02-01T01:34:33;8.4875;;;6.55;;
29172;SDS011;16223;47.966;-1.616;2023-02-01T01:35:34;16.425;;;14.899999999999999;;
29172;SDS011;16223;47.966;-1.616;2023-02-01T01:36:34;6.625;;;6.324999999999999;;
29172;SDS011;16223;47.966;-1.616;2023-02-01T01:37:33;15.500000000000002;;;8.6875;;
29172;SDS011;16223;47.966;-1.616;2023-02-01T01:38:34;7.612500000000001;;;7.3;;
29172;SDS011;16223;47.966;-1.616;2023-02-01T01:39:33;15.5625;;;10.912500000000001;;
29172;SDS011;16223;47.966;-1.616;2023-02-01T01:40:34;11.724999999999998;;;11.0;;
29172;SDS011;16223;47.966;-1.616;2023-02-01T01:41:34;11.375;;;8.0125;;
29172;SDS011;16223;47.966;-1.616;2023-02-01T01:42:36;5.775;;;5.35;;
29172;SDS011;16223;47.966;-1.616;2023-02-01T01:43:50;9.0625;;;8.524999999999999;;
29172;SDS011;16223;47.966;-1.616;2023-02-01T01:45:08;7.35;;;5.9375;;
29172;SDS011;16223;47.966;-1.616;2023-02-01T01:45:34;8.4125;;;5.800000000000001;;
29172;SDS011;16223;47.966;-1.616;2023-02-01T01:46:34;7.3125;;;6.625;;
29172;SDS011;16223;47.966;-1.616;2023-02-01T01:47:34;8.8625;;;7.8375;;
29172;SDS011;16223;47.966;-1.616;2023-02-01T01:48:34;6.475;;;5.725;;
29172;SDS011;16223;47.966;-1.616;2023-02-01T01:49:33;5.2625;;;5.05;;
29172;SDS011;16223;47.966;-1.616;2023-02-01T01:50:35;4.4125;;;4.275;;
29172;SDS011;16223;47.966;-1.616;2023-02-01T01:51:35;5.975;;;4.949999999999999;;
29172;SDS011;16223;47.966;-1.616;2023-02-01T01:52:34;5.225;;;4.625;;
29172;SDS011;16223;47.966;-1.616;2023-02-01T01:53:34;6.15;;;4.3625;;
29172;SDS011;16223;47.966;-1.616;2023-02-01T01:54:35;4.7375;;;4.4750000000000005;;
29172;SDS011;16223;47.966;-1.616;2023-02-01T01:55:35;36.825;;;8.7375;;
29172;SDS011;16223;47.966;-1.616;2023-02-01T01:56:33;4.175;;;4.05;;
29172;SDS011;16223;47.966;-1.616;2023-02-01T01:57:34;3.7250000000000005;;;3.575;;
29172;SDS011;16223;47.966;-1.616;2023-02-01T01:58:33;6.725;;;5.2375;;
29172;SDS011;16223;47.966;-1.616;2023-02-01T01:59:34;3.5749999999999997;;;3.475;;
29172;SDS011;16223;47.966;-1.616;2023-02-01T02:00:34;6.0375;;;4.9;;
29172;SDS011;16223;47.966;-1.616;2023-02-01T02:01:34;7.2625;;;4.9625;;
29172;SDS011;16223;47.966;-1.616;2023-02-01T02:02:34;5.1875;;;4.7625;;
29172;SDS011;16223;47.966;-1.616;2023-02-01T02:03:34;4.325;;;4.075;;
29172;SDS011;16223;47.966;-1.616;2023-02-01T02:04:34;17.4625;;;6.7625;;
29172;SDS011;16223;47.966;-1.616;2023-02-01T02:05:34;18.1875;;;6.887499999999999;;
29172;SDS011;16223;47.966;-1.616;2023-02-01T02:06:36;8.85;;;6.9;;
29172;SDS011;16223;47.966;-1.616;2023-02-01T02:07:35;7.0125;;;5.1625;;
29172;SDS011;16223;47.966;-1.616;2023-02-01T02:08:34;20.9125;;;12.100000000000001;;
29172;SDS011;16223;47.966;-1.616;2023-02-01T02:09:34;5.7;;;5.237500000000001;;
29172;SDS011;16223;47.966;-1.616;2023-02-01T02:10:34;16.0125;;;4.8625;;
29172;SDS011;16223;47.966;-1.616;2023-02-01T02:11:34;10.6375;;;4.8625;;
29172;SDS011;16223;47.966;-1.616;2023-02-01T02:12:34;7.612500000000001;;;5.9125;;
29172;SDS011;16223;47.966;-1.616;2023-02-01T02:13:35;6.4375;;;5.675;;
29172;SDS011;16223;47.966;-1.616;2023-02-01T02:14:34;5.5375000000000005;;;5.0;;
29172;SDS011;16223;47.966;-1.616;2023-02-01T02:15:34;5.9;;;4.8375;;
29172;SDS011;16223;47.966;-1.616;2023-02-01T02:16:38;9.149999999999999;;;5.175;;
29172;SDS011;16223;47.966;-1.616;2023-02-01T02:17:35;4.75;;;4.4875;;
29172;SDS011;16223;47.966;-1.616;2023-02-01T02:18:35;19.4125;;;8.825;;
29172;SDS011;16223;47.966;-1.616;2023-02-01T02:19:42;11.125;;;4.875;;
29172;SDS011;16223;47.966;-1.616;2023-02-01T02:20:52;10.087499999999999;;;7.3500000000000005;;
29172;SDS011;16223;47.966;-1.616;2023-02-01T02:21:38;5.3125;;;4.275;;
29172;SDS011;16223;47.966;-1.616;2023-02-01T02:24:05;9.150000000000002;;;5.5375000000000005;;
29172;SDS011;16223;47.966;-1.616;2023-02-01T02:25:11;5.1875;;;4.675;;
29172;SDS011;16223;47.966;-1.616;2023-02-01T02:26:04;18.0;;;5.1875;;
29172;SDS011;16223;47.966;-1.616;2023-02-01T02:27:03;15.9625;;;4.6;;
29172;SDS011;16223;47.966;-1.616;2023-02-01T02:28:04;15.1125;;;6.6;;
29172;SDS011;16223;47.966;-1.616;2023-02-01T02:31:40;30.9;;;7.775;;
29172;SDS011;16223;47.966;-1.616;2023-02-01T02:32:42;6.35;;;4.7875;;
29172;SDS011;16223;47.966;-1.616;2023-02-01T02:33:42;9.7625;;;7.6;;
29172;SDS011;16223;47.966;-1.616;2023-02-01T02:34:37;10.825;;;9.8875;;
29172;SDS011;16223;47.966;-1.616;2023-02-01T02:35:37;14.500000000000002;;;4.8125;;
29172;SDS011;16223;47.966;-1.616;2023-02-01T02:36:38;20.275000000000002;;;5.05;;
29172;SDS011;16223;47.966;-1.616;2023-02-01T02:37:38;38.65;;;8.675;;
29172;SDS011;16223;47.966;-1.616;2023-02-01T02:38:38;5.512499999999999;;;5.2124999999999995;;
29172;SDS011;16223;47.966;-1.616;2023-02-01T02:39:39;5.512499999999999;;;5.2875;;
29172;SDS011;16223;47.966;-1.616;2023-02-01T02:40:37;7.8999999999999995;;;6.975;;
29172;SDS011;16223;47.966;-1.616;2023-02-01T02:41:39;33.7125;;;10.075;;
29172;SDS011;16223;47.966;-1.616;2023-02-01T02:42:38;34.3125;;;5.3374999999999995;;
29172;SDS011;16223;47.966;-1.616;2023-02-01T02:43:37;5.25;;;5.05;;
29172;SDS011;16223;47.966;-1.616;2023-02-01T02:44:38;6.1000000000000005;;;5.8;;
29172;SDS011;16223;47.966;-1.616;2023-02-01T02:45:38;10.05;;;5.4624999999999995;;
29172;SDS011;16223;47.966;-1.616;2023-02-01T02:46:37;71.87142857142858;;;7.9571428571428555;;
29172;SDS011;16223;47.966;-1.616;2023-02-01T02:47:41;11.5625;;;4.7875;;
29172;SDS011;16223;47.966;-1.616;2023-02-01T02:48:38;9.875;;;6.0875;;
29172;SDS011;16223;47.966;-1.616;2023-02-01T02:49:36;26.1125;;;22.3;;
29172;SDS011;16223;47.966;-1.616;2023-02-01T02:50:36;10.687500000000002;;;7.45;;
29172;SDS011;16223;47.966;-1.616;2023-02-01T02:51:38;13.462499999999999;;;6.7625;;
29172;SDS011;16223;47.966;-1.616;2023-02-01T02:52:36;8.637500000000001;;;6.637499999999999;;
29172;SDS011;16223;47.966;-1.616;2023-02-01T02:53:38;7.0;;;6.2125;;
29172;SDS011;16223;47.966;-1.616;2023-02-01T02:54:36;15.0625;;;6.35;;
29172;SDS011;16223;47.966;-1.616;2023-02-01T02:55:36;6.425;;;6.1;;
29172;SDS011;16223;47.966;-1.616;2023-02-01T02:56:36;15.549999999999999;;;6.375;;
29172;SDS011;16223;47.966;-1.616;2023-02-01T02:57:37;8.4375;;;7.9375;;
29172;SDS011;16223;47.966;-1.616;2023-02-01T02:58:36;4.9375;;;4.8125;;
29172;SDS011;16223;47.966;-1.616;2023-02-01T02:59:36;13.299999999999999;;;9.0;;
29172;SDS011;16223;47.966;-1.616;2023-02-01T03:00:36;18.325;;;6.8375;;
29172;SDS011;16223;47.966;-1.616;2023-02-01T03:01:36;5.575;;;5.425;;
29172;SDS011;16223;47.966;-1.616;2023-02-01T03:02:36;7.8875;;;7.424999999999999;;
29172;SDS011;16223;47.966;-1.616;2023-02-01T03:03:36;6.3;;;5.65;;
29172;SDS011;16223;47.966;-1.616;2023-02-01T03:04:36;6.6;;;6.2;;
29172;SDS011;16223;47.966;-1.616;2023-02-01T03:05:39;10.524999999999999;;;6.8125;;
29172;SDS011;16223;47.966;-1.616;2023-02-01T03:06:36;10.0625;;;6.875;;
29172;SDS011;16223;47.966;-1.616;2023-02-01T03:07:53;7.525;;;7.0875;;
29172;SDS011;16223;47.966;-1.616;2023-02-01T03:08:36;20.125000000000004;;;5.949999999999999;;
29172;SDS011;16223;47.966;-1.616;2023-02-01T03:09:36;5.9125000000000005;;;5.7124999999999995;;
29172;SDS011;16223;47.966;-1.616;2023-02-01T03:10:40;8.4;;;7.5125;;
29172;SDS011;16223;47.966;-1.616;2023-02-01T03:11:36;7.1625;;;6.4375;;
29172;SDS011;16223;47.966;-1.616;2023-02-01T03:12:37;11.0125;;;7.6;;
29172;SDS011;16223;47.966;-1.616;2023-02-01T03:13:38;6.35;;;5.5625;;
29172;SDS011;16223;47.966;-1.616;2023-02-01T03:14:36;9.2625;;;7.375;;
29172;SDS011;16223;47.966;-1.616;2023-02-01T03:15:37;5.1875;;;5.025;;
29172;SDS011;16223;47.966;-1.616;2023-02-01T03:16:38;7.5625;;;7.1375;;
29172;SDS011;16223;47.966;-1.616;2023-02-01T03:17:37;6.9125;;;6.5;;
29172;SDS011;16223;47.966;-1.616;2023-02-01T03:18:37;7.425;;;7.1375;;
29172;SDS011;16223;47.966;-1.616;2023-02-01T03:19:37;18.425;;;9.8625;;
29172;SDS011;16223;47.966;-1.616;2023-02-01T03:20:36;7.55;;;5.637499999999999;;
29172;SDS011;16223;47.966;-1.616;2023-02-01T03:21:37;28.2875;;;7.2125;;
29172;SDS011;16223;47.966;-1.616;2023-02-01T03:22:36;9.0625;;;6.1125;;
29172;SDS011;16223;47.966;-1.616;2023-02-01T03:23:36;29.6125;;;7.2875000000000005;;
29172;SDS011;16223;47.966;-1.616;2023-02-01T03:24:37;5.025;;;4.825;;
29172;SDS011;16223;47.966;-1.616;2023-02-01T03:25:36;22.1875;;;9.45;;
29172;SDS011;16223;47.966;-1.616;2023-02-01T03:26:37;6.112500000000001;;;5.925;;
29172;SDS011;16223;47.966;-1.616;2023-02-01T03:27:37;7.275;;;6.425;;
29172;SDS011;16223;47.966;-1.616;2023-02-01T03:28:36;13.275000000000002;;;10.8375;;
29172;SDS011;16223;47.966;-1.616;2023-02-01T03:29:38;10.7;;;6.625;;
29172;SDS011;16223;47.966;-1.616;2023-02-01T03:30:37;8.3125;;;7.1;;
29172;SDS011;16223;47.966;-1.616;2023-02-01T03:31:36;6.4375;;;6.2125;;
29172;SDS011;16223;47.966;-1.616;2023-02-01T03:32:36;18.3375;;;6.7125;;
29172;SDS011;16223;47.966;-1.616;2023-02-01T03:33:36;9.9125;;;6.6625;;
29172;SDS011;16223;47.966;-1.616;2023-02-01T03:34:36;24.2875;;;8.8875;;
29172;SDS011;16223;47.966;-1.616;2023-02-01T03:35:37;7.7749999999999995;;;7.1125;;
29172;SDS011;16223;47.966;-1.616;2023-02-01T03:36:37;17.35;;;6.275;;
29172;SDS011;16223;47.966;-1.616;2023-02-01T03:37:36;6.0;;;5.800000000000001;;
29172;SDS011;16223;47.966;-1.616;2023-02-01T03:38:38;7.7749999999999995;;;7.2125;;
29172;SDS011;16223;47.966;-1.616;2023-02-01T03:39:37;14.762500000000001;;;11.925;;
29172;SDS011;16223;47.966;-1.616;2023-02-01T03:40:36;9.0;;;6.6875;;
29172;SDS011;16223;47.966;-1.616;2023-02-01T03:41:37;24.35;;;12.1625;;
29172;SDS011;16223;47.966;-1.616;2023-02-01T03:42:37;24.775;;;8.4625;;
29172;SDS011;16223;47.966;-1.616;2023-02-01T03:43:37;23.15;;;7.65;;
29172;SDS011;16223;47.966;-1.616;2023-02-01T03:44:37;10.125;;;9.5375;;
29172;SDS011;16223;47.966;-1.616;2023-02-01T03:45:37;9.2375;;;8.0625;;
29172;SDS011;16223;47.966;-1.616;2023-02-01T03:46:38;9.8875;;;9.325;;
29172;SDS011;16223;47.966;-1.616;2023-02-01T03:47:37;15.1625;;;10.675;;
29172;SDS011;16223;47.966;-1.616;2023-02-01T03:48:36;34.6375;;;9.125;;
29172;SDS011;16223;47.966;-1.616;2023-02-01T03:49:37;16.6;;;8.299999999999999;;
29172;SDS011;16223;47.966;-1.616;2023-02-01T03:50:36;23.700000000000003;;;9.05;;
29172;SDS011;16223;47.966;-1.616;2023-02-01T03:51:36;7.1;;;6.8;;
29172;SDS011;16223;47.966;-1.616;2023-02-01T03:52:37;7.4125000000000005;;;6.2375;;
29172;SDS011;16223;47.966;-1.616;2023-02-01T03:53:36;13.875;;;7.0625;;
29172;SDS011;16223;47.966;-1.616;2023-02-01T03:54:36;12.9;;;6.325;;
29172;SDS011;16223;47.966;-1.616;2023-02-01T03:55:36;12.8875;;;10.1125;;
29172;SDS011;16223;47.966;-1.616;2023-02-01T03:56:36;13.275;;;7.5;;
29172;SDS011;16223;47.966;-1.616;2023-02-01T03:57:37;10.712499999999999;;;8.587499999999999;;
29172;SDS011;16223;47.966;-1.616;2023-02-01T03:58:36;6.35;;;5.9125;;
29172;SDS011;16223;47.966;-1.616;2023-02-01T03:59:38;7.6125;;;7.1499999999999995;;
29172;SDS011;16223;47.966;-1.616;2023-02-01T04:00:36;19.575;;;7.0375000000000005;;
29172;SDS011;16223;47.966;-1.616;2023-02-01T04:01:36;9.7;;;8.712499999999999;;
29172;SDS011;16223;47.966;-1.616;2023-02-01T04:02:36;23.0125;;;8.8125;;
29172;SDS011;16223;47.966;-1.616;2023-02-01T04:03:36;7.0625;;;6.775;;
29172;SDS011;16223;47.966;-1.616;2023-02-01T04:04:36;18.9625;;;9.7875;;
29172;SDS011;16223;47.966;-1.616;2023-02-01T04:05:36;11.912500000000001;;;8.525;;
29172;SDS011;16223;47.966;-1.616;2023-02-01T04:06:36;6.387499999999999;;;6.2125;;
29172;SDS011;16223;47.966;-1.616;2023-02-01T04:07:36;16.974999999999998;;;8.0;;
29172;SDS011;16223;47.966;-1.616;2023-02-01T04:08:36;8.1;;;7.7124999999999995;;
29172;SDS011;16223;47.966;-1.616;2023-02-01T04:09:36;12.600000000000001;;;10.5375;;
29172;SDS011;16223;47.966;-1.616;2023-02-01T04:10:36;7.887499999999999;;;7.6;;
29172;SDS011;16223;47.966;-1.616;2023-02-01T04:11:36;13.700000000000001;;;12.7;;
29172;SDS011;16223;47.966;-1.616;2023-02-01T04:12:36;12.3875;;;11.5875;;
29172;SDS011;16223;47.966;-1.616;2023-02-01T04:13:36;9.2875;;;8.8;;
29172;SDS011;16223;47.966;-1.616;2023-02-01T04:14:36;26.887500000000003;;;9.3875;;
29172;SDS011;16223;47.966;-1.616;2023-02-01T04:15:36;7.7375;;;7.425;;
29172;SDS011;16223;47.966;-1.616;2023-02-01T04:16:46;21.1875;;;10.175;;
29172;SDS011;16223;47.966;-1.616;2023-02-01T04:17:36;27.4875;;;8.4375;;
29172;SDS011;16223;47.966;-1.616;2023-02-01T04:18:36;8.0625;;;7.7250000000000005;;
29172;SDS011;16223;47.966;-1.616;2023-02-01T04:19:36;10.8875;;;10.3375;;
29172;SDS011;16223;47.966;-1.616;2023-02-01T04:20:36;11.55;;;10.8375;;
29172;SDS011;16223;47.966;-1.616;2023-02-01T04:21:46;14.4375;;;10.3875;;
29172;SDS011;16223;47.966;-1.616;2023-02-01T04:22:36;38.56666666666666;;;36.11666666666667;;
29172;SDS011;16223;47.966;-1.616;2023-02-01T04:23:36;78.45;;;73.725;;
29172;SDS011;16223;47.966;-1.616;2023-02-01T04:24:36;67.7;;;61.575;;
29172;SDS011;16223;47.966;-1.616;2023-02-01T04:25:36;26.2625;;;24.7;;
29172;SDS011;16223;47.966;-1.616;2023-02-01T04:26:36;15.9625;;;13.712499999999999;;
29172;SDS011;16223;47.966;-1.616;2023-02-01T04:27:36;16.825;;;12.225;;
29172;SDS011;16223;47.966;-1.616;2023-02-01T04:28:36;15.587500000000002;;;10.700000000000001;;
29172;SDS011;16223;47.966;-1.616;2023-02-01T04:29:36;15.774999999999999;;;10.1;;
29172;SDS011;16223;47.966;-1.616;2023-02-01T04:30:36;12.875;;;8.4625;;
29172;SDS011;16223;47.966;-1.616;2023-02-01T04:31:36;11.7375;;;10.962499999999999;;
29172;SDS011;16223;47.966;-1.616;2023-02-01T04:32:36;12.587499999999999;;;11.7;;
29172;SDS011;16223;47.966;-1.616;2023-02-01T04:33:36;14.5125;;;12.524999999999999;;
29172;SDS011;16223;47.966;-1.616;2023-02-01T04:34:36;15.3125;;;13.6125;;
29172;SDS011;16223;47.966;-1.616;2023-02-01T04:35:36;14.925;;;13.549999999999999;;
29172;SDS011;16223;47.966;-1.616;2023-02-01T04:36:46;17.799999999999997;;;14.75;;
29172;SDS011;16223;47.966;-1.616;2023-02-01T04:37:36;38.7125;;;15.812499999999998;;
29172;SDS011;16223;47.966;-1.616;2023-02-01T04:38:36;13.475;;;12.625;;
29172;SDS011;16223;47.966;-1.616;2023-02-01T04:39:36;12.75;;;11.975000000000001;;
29172;SDS011;16223;47.966;-1.616;2023-02-01T04:40:36;31.075000000000003;;;12.8625;;
29172;SDS011;16223;47.966;-1.616;2023-02-01T04:41:36;19.975;;;12.600000000000001;;
29172;SDS011;16223;47.966;-1.616;2023-02-01T04:42:36;34.0125;;;17.55;;
29172;SDS011;16223;47.966;-1.616;2023-02-01T04:43:36;15.7875;;;12.475000000000001;;
29172;SDS011;16223;47.966;-1.616;2023-02-01T04:44:36;17.174999999999997;;;16.1625;;
29172;SDS011;16223;47.966;-1.616;2023-02-01T04:45:36;46.275;;;14.7625;;
29172;SDS011;16223;47.966;-1.616;2023-02-01T04:46:39;14.9875;;;12.95;;
29172;SDS011;16223;47.966;-1.616;2023-02-01T04:47:36;34.8;;;12.2625;;
29172;SDS011;16223;47.966;-1.616;2023-02-01T04:48:36;14.9625;;;14.225000000000001;;
29172;SDS011;16223;47.966;-1.616;2023-02-01T04:49:36;13.45;;;11.837499999999999;;
29172;SDS011;16223;47.966;-1.616;2023-02-01T04:50:36;36.2875;;;15.875;;
29172;SDS011;16223;47.966;-1.616;2023-02-01T04:51:36;27.125;;;16.375;;
29172;SDS011;16223;47.966;-1.616;2023-02-01T04:52:36;18.325000000000003;;;17.325000000000003;;
29172;SDS011;16223;47.966;-1.616;2023-02-01T04:53:36;15.5625;;;14.274999999999999;;
29172;SDS011;16223;47.966;-1.616;2023-02-01T04:54:36;14.3125;;;13.537500000000001;;
29172;SDS011;16223;47.966;-1.616;2023-02-01T04:55:36;15.849999999999998;;;14.325000000000001;;
29172;SDS011;16223;47.966;-1.616;2023-02-01T04:56:36;26.875;;;13.987499999999999;;
29172;SDS011;16223;47.966;-1.616;2023-02-01T04:57:36;14.475;;;13.525;;
29172;SDS011;16223;47.966;-1.616;2023-02-01T04:58:36;20.8;;;16.35;;
29172;SDS011;16223;47.966;-1.616;2023-02-01T04:59:36;14.962499999999999;;;13.9;;
29172;SDS011;16223;47.966;-1.616;2023-02-01T05:00:36;13.587500000000002;;;12.975;;
29172;SDS011;16223;47.966;-1.616;2023-02-01T05:01:36;43.4875;;;18.4625;;
29172;SDS011;16223;47.966;-1.616;2023-02-01T05:02:39;40.362500000000004;;;14.3;;
29172;SDS011;16223;47.966;-1.616;2023-02-01T05:03:36;24.0375;;;14.675;;
29172;SDS011;16223;47.966;-1.616;2023-02-01T05:04:36;12.175;;;11.6375;;
29172;SDS011;16223;47.966;-1.616;2023-02-01T05:05:36;11.7375;;;11.125;;
29172;SDS011;16223;47.966;-1.616;2023-02-01T05:06:36;15.45;;;12.35;;
29172;SDS011;16223;47.966;-1.616;2023-02-01T05:07:36;30.8875;;;17.325000000000003;;
29172;SDS011;16223;47.966;-1.616;2023-02-01T05:08:39;15.0125;;;13.212499999999999;;
29172;SDS011;16223;47.966;-1.616;2023-02-01T05:09:36;15.55;;;12.862499999999999;;
29172;SDS011;16223;47.966;-1.616;2023-02-01T05:10:36;31.1875;;;15.4375;;
29172;SDS011;16223;47.966;-1.616;2023-02-01T05:11:36;18.200000000000003;;;14.8625;;
29172;SDS011;16223;47.966;-1.616;2023-02-01T05:12:36;18.762500000000003;;;17.1625;;
29172;SDS011;16223;47.966;-1.616;2023-02-01T05:13:36;13.2;;;12.4375;;
29172;SDS011;16223;47.966;-1.616;2023-02-01T05:14:36;10.625;;;10.125;;
29172;SDS011;16223;47.966;-1.616;2023-02-01T05:15:36;27.575;;;11.925;;
29172;SDS011;16223;47.966;-1.616;2023-02-01T05:16:36;13.4875;;;12.7875;;
29172;SDS011;16223;47.966;-1.616;2023-02-01T05:17:36;13.8375;;;13.1125;;